sensor_id;sensor_type;location;lat;lon;timestamp;pressure;altitude;pressure_sealevel;temperature;humidity
49102;BME280;34913;47.520;19.186;2023-01-24T00:00:34;101223.59;;;4.13;100.00
49102;BME280;34913;47.520;19.186;2023-01-24T00:03:00;101235.75;;;4.15;99.89
49102;BME280;34913;47.520;19.186;2023-01-24T00:05:25;101231.53;;;4.11;99.34
49102;BME280;34913;47.520;19.186;2023-01-24T00:07:50;101230.69;;;4.11;99.36
49102;BME280;34913;47.520;19.186;2023-01-24T00:10:16;101235.88;;;4.12;99.16
49102;BME280;34913;47.520;19.186;2023-01-24T00:12:42;101240.41;;;4.07;98.57
49102;BME280;34913;47.520;19.186;2023-01-24T00:15:08;101227.34;;;4.06;98.52
49102;BME280;34913;47.520;19.186;2023-01-24T00:17:34;101233.78;;;3.97;98.35
49102;BME280;34913;47.520;19.186;2023-01-24T00:19:59;101235.72;;;3.92;98.31
49102;BME280;34913;47.520;19.186;2023-01-24T00:22:25;101236.75;;;3.88;99.10
49102;BME280;34913;47.520;19.186;2023-01-24T00:24:50;101233.78;;;3.72;99.35
49102;BME280;34913;47.520;19.186;2023-01-24T00:27:16;101234.69;;;3.71;100.00
49102;BME280;34913;47.520;19.186;2023-01-24T00:29:42;101239.66;;;3.79;99.93
49102;BME280;34913;47.520;19.186;2023-01-24T00:32:08;101239.91;;;3.73;100.00
49102;BME280;34913;47.520;19.186;2023-01-24T00:34:33;101244.88;;;3.80;100.00
49102;BME280;34913;47.520;19.186;2023-01-24T00:36:59;101246.66;;;3.80;100.00
49102;BME280;34913;47.520;19.186;2023-01-24T00:39:24;101248.50;;;3.76;100.00
49102;BME280;34913;47.520;19.186;2023-01-24T00:41:50;101246.94;;;3.71;100.00
49102;BME280;34913;47.520;19.186;2023-01-24T00:44:16;101244.38;;;3.69;100.00
49102;BME280;34913;47.520;19.186;2023-01-24T00:46:41;101250.59;;;3.67;100.00
49102;BME280;34913;47.520;19.186;2023-01-24T00:49:07;101247.13;;;3.66;100.00
49102;BME280;34913;47.520;19.186;2023-01-24T00:51:33;101253.94;;;3.72;100.00
49102;BME280;34913;47.520;19.186;2023-01-24T00:53:58;101255.06;;;3.64;100.00
49102;BME280;34913;47.520;19.186;2023-01-24T00:56:24;101263.56;;;3.71;100.00
49102;BME280;34913;47.520;19.186;2023-01-24T00:58:49;101262.56;;;3.75;100.00
49102;BME280;34913;47.520;19.186;2023-01-24T01:01:15;101260.00;;;3.74;100.00
49102;BME280;34913;47.520;19.186;2023-01-24T01:03:40;101264.28;;;3.76;100.00
49102;BME280;34913;47.520;19.186;2023-01-24T01:06:09;101264.88;;;3.84;100.00
49102;BME280;34913;47.520;19.186;2023-01-24T01:08:35;101268.28;;;3.86;99.69
49102;BME280;34913;47.520;19.186;2023-01-24T01:11:01;101267.41;;;3.87;99.00
49102;BME280;34913;47.520;19.186;2023-01-24T01:13:27;101263.88;;;3.88;98.73
49102;BME280;34913;47.520;19.186;2023-01-24T01:16:09;101279.88;;;3.81;97.87
49102;BME280;34913;47.520;19.186;2023-01-24T01:18:36;101283.44;;;3.80;97.69
49102;BME280;34913;47.520;19.186;2023-01-24T01:21:02;101268.56;;;3.79;97.38
49102;BME280;34913;47.520;19.186;2023-01-24T01:23:28;101279.78;;;3.84;96.86
49102;BME280;34913;47.520;19.186;2023-01-24T01:26:01;101271.75;;;3.88;97.29
49102;BME280;34913;47.520;19.186;2023-01-24T01:28:27;101278.59;;;3.92;97.94
49102;BME280;34913;47.520;19.186;2023-01-24T01:30:53;101273.41;;;3.91;97.06
49102;BME280;34913;47.520;19.186;2023-01-24T01:33:19;101269.91;;;3.90;97.16
49102;BME280;34913;47.520;19.186;2023-01-24T01:35:47;101278.53;;;3.94;97.02
49102;BME280;34913;47.520;19.186;2023-01-24T01:38:13;101278.25;;;3.77;96.37
49102;BME280;34913;47.520;19.186;2023-01-24T01:40:38;101287.25;;;3.70;97.46
49102;BME280;34913;47.520;19.186;2023-01-24T01:43:08;101293.28;;;3.73;98.04
49102;BME280;34913;47.520;19.186;2023-01-24T01:45:44;101286.41;;;3.69;97.99
49102;BME280;34913;47.520;19.186;2023-01-24T01:48:38;101289.22;;;3.63;97.93
49102;BME280;34913;47.520;19.186;2023-01-24T01:51:24;101290.97;;;3.62;98.01
49102;BME280;34913;47.520;19.186;2023-01-24T01:53:58;101293.41;;;3.69;98.30
49102;BME280;34913;47.520;19.186;2023-01-24T01:56:36;101293.22;;;3.75;98.09
49102;BME280;34913;47.520;19.186;2023-01-24T01:59:11;101290.72;;;3.72;97.43
49102;BME280;34913;47.520;19.186;2023-01-24T02:01:38;101285.78;;;3.61;97.54
49102;BME280;34913;47.520;19.186;2023-01-24T02:04:09;101292.81;;;3.60;97.51
49102;BME280;34913;47.520;19.186;2023-01-24T02:06:49;101284.88;;;3.62;98.09
49102;BME280;34913;47.520;19.186;2023-01-24T02:09:22;101292.81;;;3.60;97.36
49102;BME280;34913;47.520;19.186;2023-01-24T02:11:50;101287.72;;;3.56;97.23
49102;BME280;34913;47.520;19.186;2023-01-24T02:14:17;101285.97;;;3.56;97.48
49102;BME280;34913;47.520;19.186;2023-01-24T02:17:03;101300.94;;;3.53;97.30
49102;BME280;34913;47.520;19.186;2023-01-24T02:19:34;101297.66;;;3.46;97.55
49102;BME280;34913;47.520;19.186;2023-01-24T02:22:11;101306.50;;;3.44;98.00
49102;BME280;34913;47.520;19.186;2023-01-24T02:24:44;101302.03;;;3.46;98.33
49102;BME280;34913;47.520;19.186;2023-01-24T02:27:10;101297.81;;;3.42;97.66
49102;BME280;34913;47.520;19.186;2023-01-24T02:29:36;101289.03;;;3.43;97.66
49102;BME280;34913;47.520;19.186;2023-01-24T02:32:07;101298.47;;;3.48;97.87
49102;BME280;34913;47.520;19.186;2023-01-24T02:34:33;101300.19;;;3.49;97.67
49102;BME280;34913;47.520;19.186;2023-01-24T02:37:00;101303.56;;;3.53;97.74
49102;BME280;34913;47.520;19.186;2023-01-24T02:39:34;101298.06;;;3.60;97.89
49102;BME280;34913;47.520;19.186;2023-01-24T02:42:03;101299.47;;;3.71;97.60
49102;BME280;34913;47.520;19.186;2023-01-24T02:44:58;101300.72;;;3.85;95.71
49102;BME280;34913;47.520;19.186;2023-01-24T02:47:30;101296.44;;;3.83;95.44
49102;BME280;34913;47.520;19.186;2023-01-24T02:50:01;101306.19;;;3.79;94.72
49102;BME280;34913;47.520;19.186;2023-01-24T02:52:27;101300.13;;;3.77;94.72
49102;BME280;34913;47.520;19.186;2023-01-24T02:55:11;101302.75;;;3.77;94.58
49102;BME280;34913;47.520;19.186;2023-01-24T02:57:37;101305.19;;;3.83;95.25
49102;BME280;34913;47.520;19.186;2023-01-24T03:00:21;101306.81;;;3.86;95.19
49102;BME280;34913;47.520;19.186;2023-01-24T03:02:46;101314.44;;;3.93;95.92
49102;BME280;34913;47.520;19.186;2023-01-24T03:05:12;101311.75;;;3.97;95.20
49102;BME280;34913;47.520;19.186;2023-01-24T03:07:37;101313.53;;;3.95;95.01
49102;BME280;34913;47.520;19.186;2023-01-24T03:10:14;101316.81;;;4.01;94.89
49102;BME280;34913;47.520;19.186;2023-01-24T03:12:40;101321.13;;;4.04;94.53
49102;BME280;34913;47.520;19.186;2023-01-24T03:15:24;101313.97;;;4.07;94.37
49102;BME280;34913;47.520;19.186;2023-01-24T03:18:08;101318.25;;;4.11;94.01
49102;BME280;34913;47.520;19.186;2023-01-24T03:20:53;101314.69;;;4.12;93.44
49102;BME280;34913;47.520;19.186;2023-01-24T03:23:37;101315.34;;;4.19;93.81
49102;BME280;34913;47.520;19.186;2023-01-24T03:26:21;101319.63;;;4.22;93.33
49102;BME280;34913;47.520;19.186;2023-01-24T03:29:06;101323.22;;;4.19;93.29
49102;BME280;34913;47.520;19.186;2023-01-24T03:31:50;101316.72;;;4.04;93.05
49102;BME280;34913;47.520;19.186;2023-01-24T03:34:34;101320.34;;;4.00;93.28
49102;BME280;34913;47.520;19.186;2023-01-24T03:37:19;101320.34;;;4.00;94.08
49102;BME280;34913;47.520;19.186;2023-01-24T03:40:07;101325.34;;;4.08;94.34
49102;BME280;34913;47.520;19.186;2023-01-24T03:42:33;101324.34;;;4.12;93.99
49102;BME280;34913;47.520;19.186;2023-01-24T03:45:00;101326.19;;;4.08;93.11
49102;BME280;34913;47.520;19.186;2023-01-24T03:47:25;101323.16;;;3.96;93.08
49102;BME280;34913;47.520;19.186;2023-01-24T03:49:51;101320.03;;;3.84;93.67
49102;BME280;34913;47.520;19.186;2023-01-24T03:52:35;101322.03;;;3.76;94.04
49102;BME280;34913;47.520;19.186;2023-01-24T03:55:00;101319.53;;;3.73;94.30
49102;BME280;34913;47.520;19.186;2023-01-24T03:57:28;101326.44;;;3.76;94.68
49102;BME280;34913;47.520;19.186;2023-01-24T03:59:54;101320.47;;;3.71;94.57
49102;BME280;34913;47.520;19.186;2023-01-24T04:02:20;101326.38;;;3.77;94.88
49102;BME280;34913;47.520;19.186;2023-01-24T04:04:46;101318.41;;;3.80;95.07
49102;BME280;34913;47.520;19.186;2023-01-24T04:07:30;101321.03;;;3.80;94.73
49102;BME280;34913;47.520;19.186;2023-01-24T04:09:55;101320.53;;;3.69;94.52
49102;BME280;34913;47.520;19.186;2023-01-24T04:12:23;101326.84;;;3.63;95.27
49102;BME280;34913;47.520;19.186;2023-01-24T04:14:48;101339.41;;;3.54;95.88
49102;BME280;34913;47.520;19.186;2023-01-24T04:17:14;101333.25;;;3.55;96.50
49102;BME280;34913;47.520;19.186;2023-01-24T04:19:39;101340.00;;;3.62;96.79
49102;BME280;34913;47.520;19.186;2023-01-24T04:22:05;101335.69;;;3.61;96.27
49102;BME280;34913;47.520;19.186;2023-01-24T04:24:30;101332.19;;;3.60;96.13
49102;BME280;34913;47.520;19.186;2023-01-24T04:26:55;101338.22;;;3.64;96.13
49102;BME280;34913;47.520;19.186;2023-01-24T04:29:21;101329.63;;;3.59;95.62
49102;BME280;34913;47.520;19.186;2023-01-24T04:31:46;101332.44;;;3.53;95.96
49102;BME280;34913;47.520;19.186;2023-01-24T04:34:12;101326.50;;;3.48;96.08
49102;BME280;34913;47.520;19.186;2023-01-24T04:36:37;101326.63;;;3.43;96.51
49102;BME280;34913;47.520;19.186;2023-01-24T04:39:03;101330.00;;;3.47;96.83
49102;BME280;34913;47.520;19.186;2023-01-24T04:41:28;101331.75;;;3.48;96.72
49102;BME280;34913;47.520;19.186;2023-01-24T04:43:54;101329.06;;;3.49;96.67
49102;BME280;34913;47.520;19.186;2023-01-24T04:46:20;101336.72;;;3.55;96.60
49102;BME280;34913;47.520;19.186;2023-01-24T04:48:45;101336.09;;;3.49;96.08
49102;BME280;34913;47.520;19.186;2023-01-24T04:51:11;101335.31;;;3.45;96.48
49102;BME280;34913;47.520;19.186;2023-01-24T04:53:40;101341.81;;;3.33;96.88
49102;BME280;34913;47.520;19.186;2023-01-24T04:56:06;101340.97;;;3.33;97.46
49102;BME280;34913;47.520;19.186;2023-01-24T04:58:32;101341.81;;;3.33;97.17
49102;BME280;34913;47.520;19.186;2023-01-24T05:00:58;101344.34;;;3.36;97.13
49102;BME280;34913;47.520;19.186;2023-01-24T05:03:24;101346.91;;;3.38;96.89
49102;BME280;34913;47.520;19.186;2023-01-24T05:05:51;101347.19;;;3.29;96.54
49102;BME280;34913;47.520;19.186;2023-01-24T05:08:16;101356.22;;;3.20;96.91
49102;BME280;34913;47.520;19.186;2023-01-24T05:10:42;101354.50;;;3.19;97.31
49102;BME280;34913;47.520;19.186;2023-01-24T05:13:08;101354.38;;;3.22;97.30
49102;BME280;34913;47.520;19.186;2023-01-24T05:15:33;101356.31;;;3.17;96.88
49102;BME280;34913;47.520;19.186;2023-01-24T05:17:59;101351.94;;;3.18;97.07
49102;BME280;34913;47.520;19.186;2023-01-24T05:20:27;101357.13;;;3.19;97.12
49102;BME280;34913;47.520;19.186;2023-01-24T05:22:55;101348.34;;;3.20;97.16
49102;BME280;34913;47.520;19.186;2023-01-24T05:25:21;101351.13;;;3.14;96.65
49102;BME280;34913;47.520;19.186;2023-01-24T05:27:46;101356.50;;;3.11;97.25
49102;BME280;34913;47.520;19.186;2023-01-24T05:30:12;101358.03;;;3.18;97.25
49102;BME280;34913;47.520;19.186;2023-01-24T05:32:37;101358.88;;;3.19;97.06
49102;BME280;34913;47.520;19.186;2023-01-24T05:35:04;101355.69;;;3.09;96.96
49102;BME280;34913;47.520;19.186;2023-01-24T05:37:30;101359.47;;;2.99;97.51
49102;BME280;34913;47.520;19.186;2023-01-24T05:39:55;101354.28;;;2.97;97.98
49102;BME280;34913;47.520;19.186;2023-01-24T05:42:21;101354.16;;;3.02;98.67
49102;BME280;34913;47.520;19.186;2023-01-24T05:44:46;101351.53;;;3.02;98.39
49102;BME280;34913;47.520;19.186;2023-01-24T05:47:12;101357.63;;;3.02;98.00
49102;BME280;34913;47.520;19.186;2023-01-24T05:49:37;101358.38;;;3.06;98.71
49102;BME280;34913;47.520;19.186;2023-01-24T05:52:03;101357.69;;;2.99;98.26
49102;BME280;34913;47.520;19.186;2023-01-24T05:54:28;101364.88;;;2.94;98.75
49102;BME280;34913;47.520;19.186;2023-01-24T05:56:54;101365.63;;;2.98;98.92
49102;BME280;34913;47.520;19.186;2023-01-24T05:59:20;101364.88;;;2.94;98.55
49102;BME280;34913;47.520;19.186;2023-01-24T06:01:45;101362.47;;;2.87;98.84
49102;BME280;34913;47.520;19.186;2023-01-24T06:04:11;101362.47;;;2.87;98.48
49102;BME280;34913;47.520;19.186;2023-01-24T06:06:37;101368.47;;;2.90;98.79
49102;BME280;34913;47.520;19.186;2023-01-24T06:09:02;101371.03;;;2.92;98.18
49102;BME280;34913;47.520;19.186;2023-01-24T06:11:28;101384.63;;;2.75;97.65
49102;BME280;34913;47.520;19.186;2023-01-24T06:13:55;101377.78;;;2.71;98.68
49102;BME280;34913;47.520;19.186;2023-01-24T06:16:23;101387.19;;;2.76;98.64
49102;BME280;34913;47.520;19.186;2023-01-24T06:18:50;101384.94;;;2.64;97.63
49102;BME280;34913;47.520;19.186;2023-01-24T06:21:45;101393.91;;;2.56;98.35
49102;BME280;34913;47.520;19.186;2023-01-24T06:26:42;101377.41;;;2.52;98.06
49102;BME280;34913;47.520;19.186;2023-01-24T06:29:09;101393.09;;;2.54;97.72
49102;BME280;34913;47.520;19.186;2023-01-24T06:39:58;101390.72;;;2.44;98.29
49102;BME280;34913;47.520;19.186;2023-01-24T06:42:23;101394.88;;;2.53;98.89
49102;BME280;34913;47.520;19.186;2023-01-24T06:44:49;101396.34;;;2.63;99.01
49102;BME280;34913;47.520;19.186;2023-01-24T06:47:15;101396.06;;;2.72;99.11
49102;BME280;34913;47.520;19.186;2023-01-24T06:49:41;101391.56;;;2.77;98.89
49102;BME280;34913;47.520;19.186;2023-01-24T06:52:07;101388.69;;;2.87;98.83
49102;BME280;34913;47.520;19.186;2023-01-24T06:54:34;101394.56;;;2.95;99.14
49102;BME280;34913;47.520;19.186;2023-01-24T06:57:00;101396.06;;;3.03;99.09
49102;BME280;34913;47.520;19.186;2023-01-24T06:59:25;101395.91;;;3.10;99.06
49102;BME280;34913;47.520;19.186;2023-01-24T07:01:51;101393.97;;;3.15;98.96
49102;BME280;34913;47.520;19.186;2023-01-24T07:04:17;101401.56;;;3.24;98.95
49102;BME280;34913;47.520;19.186;2023-01-24T07:06:43;101397.06;;;3.29;98.92
49102;BME280;34913;47.520;19.186;2023-01-24T07:09:09;101405.72;;;3.32;99.14
49102;BME280;34913;47.520;19.186;2023-01-24T07:11:34;101411.53;;;3.42;99.00
49102;BME280;34913;47.520;19.186;2023-01-24T07:14:00;101403.47;;;3.48;98.84
49102;BME280;34913;47.520;19.186;2023-01-24T07:16:26;101413.53;;;3.62;98.41
49102;BME280;34913;47.520;19.186;2023-01-24T07:18:51;101407.97;;;3.71;97.87
49102;BME280;34913;47.520;19.186;2023-01-24T07:21:17;101421.53;;;3.85;96.78
49102;BME280;34913;47.520;19.186;2023-01-24T07:23:44;101424.88;;;3.90;96.66
49102;BME280;34913;47.520;19.186;2023-01-24T07:26:10;101421.22;;;3.95;96.37
49102;BME280;34913;47.520;19.186;2023-01-24T07:28:37;101417.38;;;4.06;96.08
49102;BME280;34913;47.520;19.186;2023-01-24T07:31:03;101425.84;;;4.14;95.63
49102;BME280;34913;47.520;19.186;2023-01-24T07:33:29;101427.31;;;4.23;95.22
49102;BME280;34913;47.520;19.186;2023-01-24T07:35:55;101432.44;;;4.28;94.52
49102;BME280;34913;47.520;19.186;2023-01-24T07:38:20;101429.75;;;4.29;94.58
49102;BME280;34913;47.520;19.186;2023-01-24T07:40:46;101426.78;;;4.38;94.35
49102;BME280;34913;47.520;19.186;2023-01-24T07:43:12;101431.00;;;4.44;93.93
49102;BME280;34913;47.520;19.186;2023-01-24T07:45:37;101435.06;;;4.53;93.63
49102;BME280;34913;47.520;19.186;2023-01-24T07:48:05;101426.00;;;4.61;92.93
49102;BME280;34913;47.520;19.186;2023-01-24T07:50:31;101427.13;;;4.54;92.43
49102;BME280;34913;47.520;19.186;2023-01-24T07:52:57;101431.72;;;4.47;92.12
49102;BME280;34913;47.520;19.186;2023-01-24T07:55:24;101441.91;;;4.58;92.49
49102;BME280;34913;47.520;19.186;2023-01-24T07:57:49;101439.75;;;4.69;92.17
49102;BME280;34913;47.520;19.186;2023-01-24T08:00:15;101440.53;;;4.71;91.46
49102;BME280;34913;47.520;19.186;2023-01-24T08:02:42;101452.56;;;4.79;91.62
49102;BME280;34913;47.520;19.186;2023-01-24T08:05:07;101456.75;;;4.84;91.42
49102;BME280;34913;47.520;19.186;2023-01-24T08:07:33;101447.66;;;4.93;90.90
49102;BME280;34913;47.520;19.186;2023-01-24T08:09:58;101451.00;;;4.98;89.98
49102;BME280;34913;47.520;19.186;2023-01-24T08:12:24;101454.22;;;5.06;89.83
49102;BME280;34913;47.520;19.186;2023-01-24T08:14:49;101458.44;;;5.10;89.80
49102;BME280;34913;47.520;19.186;2023-01-24T08:17:15;101455.66;;;5.15;89.24
49102;BME280;34913;47.520;19.186;2023-01-24T08:19:41;101459.41;;;5.08;88.97
49102;BME280;34913;47.520;19.186;2023-01-24T08:22:06;101463.56;;;5.13;88.69
49102;BME280;34913;47.520;19.186;2023-01-24T08:24:32;101459.13;;;5.15;88.60
49102;BME280;34913;47.520;19.186;2023-01-24T08:27:01;101461.06;;;5.10;88.53
49102;BME280;34913;47.520;19.186;2023-01-24T08:29:27;101464.63;;;5.09;89.22
49102;BME280;34913;47.520;19.186;2023-01-24T08:31:53;101472.56;;;5.08;89.60
49102;BME280;34913;47.520;19.186;2023-01-24T08:34:19;101481.06;;;5.16;89.00
49102;BME280;34913;47.520;19.186;2023-01-24T08:36:44;101468.34;;;5.27;88.33
49102;BME280;34913;47.520;19.186;2023-01-24T08:39:10;101476.53;;;5.43;87.94
49102;BME280;34913;47.520;19.186;2023-01-24T08:41:35;101477.78;;;5.56;87.16
49102;BME280;34913;47.520;19.186;2023-01-24T08:44:02;101475.88;;;5.59;86.54
49102;BME280;34913;47.520;19.186;2023-01-24T08:46:28;101477.66;;;5.59;86.54
49102;BME280;34913;47.520;19.186;2023-01-24T08:48:54;101481.28;;;5.56;86.63
49102;BME280;34913;47.520;19.186;2023-01-24T08:51:19;101478.28;;;5.66;86.63
49102;BME280;34913;47.520;19.186;2023-01-24T08:53:45;101474.34;;;5.77;86.38
49102;BME280;34913;47.520;19.186;2023-01-24T08:56:11;101469.09;;;5.76;85.64
49102;BME280;34913;47.520;19.186;2023-01-24T08:58:37;101477.91;;;5.75;85.44
49102;BME280;34913;47.520;19.186;2023-01-24T09:01:06;101477.59;;;5.60;86.08
49102;BME280;34913;47.520;19.186;2023-01-24T09:03:32;101482.25;;;5.54;86.83
49102;BME280;34913;47.520;19.186;2023-01-24T09:05:57;101483.06;;;5.56;87.17
49102;BME280;34913;47.520;19.186;2023-01-24T09:08:23;101477.19;;;5.71;87.29
49102;BME280;34913;47.520;19.186;2023-01-24T09:10:49;101482.28;;;5.76;86.99
49102;BME280;34913;47.520;19.186;2023-01-24T09:13:14;101481.13;;;5.83;86.49
49102;BME280;34913;47.520;19.186;2023-01-24T09:15:40;101483.09;;;5.78;85.74
49102;BME280;34913;47.520;19.186;2023-01-24T09:18:05;101481.47;;;5.74;86.06
49102;BME280;34913;47.520;19.186;2023-01-24T09:20:31;101479.38;;;5.60;85.43
49102;BME280;34913;47.520;19.186;2023-01-24T09:22:56;101483.84;;;5.58;86.99
49102;BME280;34913;47.520;19.186;2023-01-24T09:25:22;101482.06;;;5.58;86.20
49102;BME280;34913;47.520;19.186;2023-01-24T09:27:54;101489.00;;;5.61;86.35
49102;BME280;34913;47.520;19.186;2023-01-24T09:30:20;101484.41;;;5.66;86.77
49102;BME280;34913;47.520;19.186;2023-01-24T09:32:47;101475.41;;;5.72;86.98
49102;BME280;34913;47.520;19.186;2023-01-24T09:35:13;101472.72;;;5.73;87.24
49102;BME280;34913;47.520;19.186;2023-01-24T09:37:38;101477.75;;;5.79;87.24
49102;BME280;34913;47.520;19.186;2023-01-24T09:40:09;101471.19;;;5.89;87.55
49102;BME280;34913;47.520;19.186;2023-01-24T09:42:55;101481.53;;;5.96;87.05
49102;BME280;34913;47.520;19.186;2023-01-24T09:45:31;101467.53;;;6.15;86.92
49102;BME280;34913;47.520;19.186;2023-01-24T09:48:03;101468.91;;;6.26;86.02
49102;BME280;34913;47.520;19.186;2023-01-24T09:50:45;101469.75;;;6.47;85.68
49102;BME280;34913;47.520;19.186;2023-01-24T09:53:25;101458.44;;;6.65;83.67
49102;BME280;34913;47.520;19.186;2023-01-24T09:55:52;101455.41;;;6.74;83.12
49102;BME280;34913;47.520;19.186;2023-01-24T09:58:29;101464.63;;;6.84;83.06
49102;BME280;34913;47.520;19.186;2023-01-24T10:01:02;101456.72;;;7.05;80.93
49102;BME280;34913;47.520;19.186;2023-01-24T10:03:31;101460.91;;;7.09;80.34
49102;BME280;34913;47.520;19.186;2023-01-24T10:06:00;101455.69;;;7.07;79.38
49102;BME280;34913;47.520;19.186;2023-01-24T10:08:40;101451.00;;;7.14;77.90
49102;BME280;34913;47.520;19.186;2023-01-24T10:14:29;101442.03;;;7.55;76.52
49102;BME280;34913;47.520;19.186;2023-01-24T10:22:07;101442.44;;;7.65;75.92
49102;BME280;34913;47.520;19.186;2023-01-24T10:24:41;101437.88;;;7.69;74.40
49102;BME280;34913;47.520;19.186;2023-01-24T10:27:25;101439.31;;;7.76;73.04
49102;BME280;34913;47.520;19.186;2023-01-24T10:29:57;101438.28;;;7.78;71.51
49102;BME280;34913;47.520;19.186;2023-01-24T10:32:31;101435.19;;;7.88;68.95
49102;BME280;34913;47.520;19.186;2023-01-24T10:35:01;101434.28;;;7.89;67.88
49102;BME280;34913;47.520;19.186;2023-01-24T10:37:33;101434.63;;;7.81;67.54
49102;BME280;34913;47.520;19.186;2023-01-24T10:40:10;101426.38;;;7.70;67.84
49102;BME280;34913;47.520;19.186;2023-01-24T10:42:36;101424.66;;;7.69;68.11
49102;BME280;34913;47.520;19.186;2023-01-24T10:48:02;101418.75;;;7.64;69.10
49102;BME280;34913;47.520;19.186;2023-01-24T10:50:41;101413.09;;;7.71;68.95
49102;BME280;34913;47.520;19.186;2023-01-24T10:55:39;101405.53;;;7.64;67.76
49102;BME280;34913;47.520;19.186;2023-01-24T10:58:22;101414.59;;;7.58;68.36
49102;BME280;34913;47.520;19.186;2023-01-24T11:00:59;101407.41;;;7.62;68.84
49102;BME280;34913;47.520;19.186;2023-01-24T11:03:29;101401.81;;;7.68;66.99
49102;BME280;34913;47.520;19.186;2023-01-24T11:05:57;101400.66;;;7.73;66.77
49102;BME280;34913;47.520;19.186;2023-01-24T11:08:32;101397.22;;;7.71;66.83
49102;BME280;34913;47.520;19.186;2023-01-24T11:10:58;101390.25;;;7.70;66.64
49102;BME280;34913;47.520;19.186;2023-01-24T11:13:37;101395.31;;;7.75;67.42
49102;BME280;34913;47.520;19.186;2023-01-24T11:16:20;101388.81;;;7.82;68.56
49102;BME280;34913;47.520;19.186;2023-01-24T11:18:49;101382.34;;;7.88;68.00
49102;BME280;34913;47.520;19.186;2023-01-24T11:21:17;101383.84;;;7.93;67.33
49102;BME280;34913;47.520;19.186;2023-01-24T11:23:43;101375.91;;;7.93;68.08
49102;BME280;34913;47.520;19.186;2023-01-24T11:29:05;101371.84;;;8.03;67.00
49102;BME280;34913;47.520;19.186;2023-01-24T11:31:39;101363.84;;;8.05;66.80
49102;BME280;34913;47.520;19.186;2023-01-24T11:45:32;101356.00;;;8.03;66.47
49102;BME280;34913;47.520;19.186;2023-01-24T11:48:18;101355.06;;;8.04;66.87
49102;BME280;34913;47.520;19.186;2023-01-24T12:01:29;101346.81;;;8.28;65.38
49102;BME280;34913;47.520;19.186;2023-01-24T12:07:14;101339.72;;;8.28;63.12
49102;BME280;34913;47.520;19.186;2023-01-24T12:09:48;101350.56;;;8.24;64.18
49102;BME280;34913;47.520;19.186;2023-01-24T12:22:38;101342.31;;;8.30;62.67
49102;BME280;34913;47.520;19.186;2023-01-24T12:25:22;101346.50;;;8.34;62.79
49102;BME280;34913;47.520;19.186;2023-01-24T12:27:49;101338.28;;;8.40;63.93
49102;BME280;34913;47.520;19.186;2023-01-24T12:32:54;101340.22;;;8.36;61.97
49102;BME280;34913;47.520;19.186;2023-01-24T12:35:27;101335.72;;;8.38;63.22
49102;BME280;34913;47.520;19.186;2023-01-24T12:40:58;101337.56;;;8.36;63.52
49102;BME280;34913;47.520;19.186;2023-01-24T12:51:13;101335.00;;;8.18;65.25
49102;BME280;34913;47.520;19.186;2023-01-24T12:53:59;101333.50;;;8.12;65.44
49102;BME280;34913;47.520;19.186;2023-01-24T12:59:01;101336.31;;;8.09;65.53
49102;BME280;34913;47.520;19.186;2023-01-24T13:01:41;101341.91;;;8.03;65.29
49102;BME280;34913;47.520;19.186;2023-01-24T13:10:03;101333.69;;;8.09;67.07
49102;BME280;34913;47.520;19.186;2023-01-24T13:12:31;101327.53;;;8.08;68.28
49102;BME280;34913;47.520;19.186;2023-01-24T13:15:31;101331.19;;;8.06;68.70
49102;BME280;34913;47.520;19.186;2023-01-24T13:24:05;101332.56;;;7.96;71.00
49102;BME280;34913;47.520;19.186;2023-01-24T13:29:20;101336.41;;;7.90;71.79
49102;BME280;34913;47.520;19.186;2023-01-24T13:32:13;101332.03;;;7.89;71.56
49102;BME280;34913;47.520;19.186;2023-01-24T13:34:49;101324.94;;;7.90;72.05
49102;BME280;34913;47.520;19.186;2023-01-24T13:37:35;101334.63;;;7.91;72.32
49102;BME280;34913;47.520;19.186;2023-01-24T13:42:35;101336.41;;;7.90;73.23
49102;BME280;34913;47.520;19.186;2023-01-24T13:47:57;101324.91;;;7.91;73.83
49102;BME280;34913;47.520;19.186;2023-01-24T13:50:28;101337.09;;;7.94;73.33
49102;BME280;34913;47.520;19.186;2023-01-24T13:52:58;101342.22;;;7.97;73.73
49102;BME280;34913;47.520;19.186;2023-01-24T14:00:50;101328.78;;;8.01;74.92
49102;BME280;34913;47.520;19.186;2023-01-24T14:05:55;101327.75;;;7.87;75.13
49102;BME280;34913;47.520;19.186;2023-01-24T14:16:11;101337.66;;;7.83;75.81
49102;BME280;34913;47.520;19.186;2023-01-24T14:18:46;101338.63;;;7.80;75.99
49102;BME280;34913;47.520;19.186;2023-01-24T14:21:17;101338.88;;;7.76;75.96
49102;BME280;34913;47.520;19.186;2023-01-24T14:23:48;101337.53;;;7.67;76.22
49102;BME280;34913;47.520;19.186;2023-01-24T14:26:17;101339.84;;;7.56;76.39
49102;BME280;34913;47.520;19.186;2023-01-24T14:28:54;101336.72;;;7.48;76.45
49102;BME280;34913;47.520;19.186;2023-01-24T14:31:24;101338.94;;;7.38;76.50
49102;BME280;34913;47.520;19.186;2023-01-24T14:36:42;101332.84;;;7.19;77.73
49102;BME280;34913;47.520;19.186;2023-01-24T14:39:23;101339.47;;;7.09;78.60
49102;BME280;34913;47.520;19.186;2023-01-24T14:41:57;101333.91;;;6.96;80.02
49102;BME280;34913;47.520;19.186;2023-01-24T14:44:26;101346.03;;;6.81;80.83
49102;BME280;34913;47.520;19.186;2023-01-24T14:46:54;101339.31;;;6.74;81.65
49102;BME280;34913;47.520;19.186;2023-01-24T14:49:30;101339.59;;;6.68;82.54
49102;BME280;34913;47.520;19.186;2023-01-24T14:51:56;101335.09;;;6.70;82.42
49102;BME280;34913;47.520;19.186;2023-01-24T14:54:23;101344.00;;;6.67;82.36
49102;BME280;34913;47.520;19.186;2023-01-24T14:56:49;101338.47;;;6.53;83.03
49102;BME280;34913;47.520;19.186;2023-01-24T14:59:19;101339.66;;;6.46;83.55